Main page
METAR-TAF:

METAR-TAF

Airports :

Larnaca, Cyprus

Larnaca International Airport

latitude: 34-53N, longitude: 033-38E, elevation: 2 m

Current weather observation

The report was made 37 minutes ago, at 16:30 UTC
Wind 6 kt from the South/Southwest
Temperature 29°C
Humidity 48%
Pressure 1010 hPa
Visibility 10 km or more
no clouds below 1500 m and no cumulonimbus

METAR: LCLK 231630Z 21006KT CAVOK 29/17 Q1010 NOSIG

Time: 20:07 (17:07 UTC)

Forecast

The report was made 5 hours and 37 minutes ago, at 11:30 UTC
Forecast valid from 23 at 12 UTC to 24 at 12 UTC
Wind 14 kt from the South/Southwest
Visibility 10 km or more
Few clouds at a height of 3000 ft
Becoming
from 23 at 17 UTC to 23 at 19 UTC
Wind 6 kt from the Northwest
Becoming
from 24 at 09 UTC to 24 at 12 UTC
Wind 14 kt from the South/Southwest

TAF: LCLK 231130Z 2312/2412 21014KT 9999 FEW030 BECMG 2317/2319 31006KT BECMG 2409/2412 21014KT

Weather observations and forecasts of more than 4000 airports (METAR and TAF reports).

The available stations are represented by yellow and red dots on the map.

Hover mouse over dot to see the name of the station.

Then click to see weather observations and forecasts.

To change the map : click on the green buttons with a black cross to zoom in, on the green button with a dash to zoom out, or on the green arrows for adjacent maps.


METAR-TAF: